Time;durP1;ratioP1;P1;durP2;ratioP2;P2;SDS_P1;SDS_P2;PMS_P1;PMS_P2;Temp;Humidity;BMP_temperature;BMP_pressure;BME280_temperature;BME280_humidity;BME280_pressure;Samples;Min_cycle;Max_cycle;Signal;HPM_P1;HPM_P2
2023/01/02 00:02:56;;;;;;;7.63;6.00;;;;;;;17.95;46.85;101382.34;20899595;28;20150;-82
2023/01/02 00:12:56;;;;;;;7.15;5.30;;;;;;;17.95;46.84;101372.69;20916228;28;20033;-81
2023/01/02 00:22:57;;;;;;;8.30;5.88;;;;;;;17.94;46.84;101370.97;20883855;28;20048;-82
2023/01/02 00:32:57;;;;;;;8.13;5.82;;;;;;;17.93;46.85;101364.91;20900847;28;20429;-81
2023/01/02 00:42:59;;;;;;;8.38;6.10;;;;;;;17.93;46.82;101364.91;20887402;28;20044;-82
2023/01/02 00:52:59;;;;;;;7.95;5.85;;;;;;;17.93;46.98;101370.13;20901129;28;20757;-82
2023/01/02 01:03:00;;;;;;;8.07;5.88;;;;;;;17.92;46.85;101378.91;20903466;28;20175;-81
2023/01/02 01:13:01;;;;;;;8.27;6.10;;;;;;;17.92;46.78;101371.06;20898397;28;20048;-81
2023/01/02 01:23:01;;;;;;;7.63;5.80;;;;;;;17.92;46.68;101380.69;20895401;28;20490;-82
2023/01/02 01:33:02;;;;;;;7.57;5.60;;;;;;;17.92;46.82;101375.47;20892673;28;20041;-81
2023/01/02 01:43:02;;;;;;;7.18;5.60;;;;;;;17.92;46.71;101351.88;20878626;28;20048;-82
2023/01/02 01:53:08;;;;;;;7.68;5.88;;;;;;;17.91;46.93;101326.59;20892597;28;20045;-80
2023/01/02 02:03:17;;;;;;;8.88;6.13;;;;;;;17.90;46.90;101325.72;20898328;28;20052;-82
2023/01/02 02:13:18;;;;;;;8.30;5.85;;;;;;;17.89;46.81;101310.94;20895778;28;20037;-81
2023/01/02 02:23:31;;;;;;;8.73;6.20;;;;;;;17.91;46.77;101308.25;20897553;28;20407;-81
2023/01/02 02:33:34;;;;;;;8.17;6.17;;;;;;;17.90;46.87;101311.78;20885482;28;20063;-82
2023/01/02 02:43:40;;;;;;;7.63;5.80;;;;;;;17.89;46.73;101300.47;20899263;28;20045;-81
2023/01/02 02:53:54;;;;;;;7.35;5.45;;;;;;;17.89;46.85;101292.59;20906800;28;20261;-81
2023/01/02 03:03:54;;;;;;;;;;;;;;;17.90;46.83;101307.38;20894669;28;20057;-81
2023/01/02 03:14:07;;;;;;;6.97;5.38;;;;;;;17.90;46.76;101306.53;20917353;28;20043;-83
2023/01/02 03:24:10;;;;;;;7.93;5.95;;;;;;;17.89;46.84;101287.38;20890682;28;20679;-81
2023/01/02 03:34:15;;;;;;;8.50;5.67;;;;;;;17.89;46.84;101278.63;20916035;28;20456;-82
2023/01/02 03:44:18;;;;;;;8.27;5.70;;;;;;;17.88;46.82;101283.03;20884880;28;20072;-82
2023/01/02 03:54:20;;;;;;;7.90;5.85;;;;;;;17.89;46.79;101276.03;20907430;28;20041;-81
2023/01/02 04:04:36;;;;;;;7.75;5.50;;;;;;;17.90;47.01;101282.97;20909027;28;20591;-80
2023/01/02 04:14:44;;;;;;;7.68;5.80;;;;;;;17.89;46.83;101292.59;20891978;28;20466;-81
2023/01/02 04:24:49;;;;;;;9.10;6.30;;;;;;;17.89;46.73;101276.03;20882418;28;20049;-82
2023/01/02 04:34:52;;;;;;;8.02;5.90;;;;;;;17.89;46.83;101303.09;20907919;28;20163;-82
2023/01/02 04:44:53;;;;;;;7.73;5.63;;;;;;;17.89;46.95;101305.72;20914715;28;20045;-82
2023/01/02 04:54:53;;;;;;;8.23;5.43;;;;;;;17.90;46.94;101309.16;20906073;28;20063;-82
2023/01/02 05:04:53;;;;;;;8.65;6.15;;;;;;;17.89;46.90;101308.34;20882436;28;20056;-82
2023/01/02 05:14:54;;;;;;;6.78;5.28;;;;;;;17.89;46.94;101305.72;20909387;28;20053;-82
2023/01/02 05:24:54;;;;;;;7.68;5.47;;;;;;;17.88;46.95;101296.16;20902313;28;20051;-82
2023/01/02 05:34:56;;;;;;;6.95;5.20;;;;;;;17.87;46.93;101302.31;20904018;28;20048;-83
2023/01/02 05:44:56;;;;;;;7.72;5.53;;;;;;;17.87;47.01;101289.22;20904996;28;20041;-83
2023/01/02 05:54:57;;;;;;;7.80;5.55;;;;;;;17.86;46.93;101292.75;20899169;28;20128;-83
2023/01/02 06:04:57;;;;;;;6.70;5.15;;;;;;;17.87;47.08;101294.44;20898440;28;20139;-81
2023/01/02 06:14:57;;;;;;;7.45;5.60;;;;;;;17.87;47.10;101288.34;20897492;28;20048;-82
2023/01/02 06:24:58;;;;;;;7.95;5.07;;;;;;;17.87;46.97;101285.72;20877164;28;20115;-81
2023/01/02 06:34:58;;;;;;;7.65;5.70;;;;;;;17.87;46.88;101293.59;20907972;28;20155;-81
2023/01/02 06:44:59;;;;;;;8.93;6.43;;;;;;;17.86;46.97;101284.88;20900331;28;20045;-82
2023/01/02 06:54:59;;;;;;;10.57;6.88;;;;;;;17.88;47.01;101296.16;20878149;28;20172;-82
2023/01/02 07:04:59;;;;;;;10.52;7.03;;;;;;;17.88;46.89;101304.00;20907160;28;20076;-82
2023/01/02 07:15:00;;;;;;;10.13;6.88;;;;;;;17.88;46.87;101313.63;20891141;28;20079;-82
2023/01/02 07:25:00;;;;;;;11.45;7.10;;;;;;;17.89;47.00;101323.19;20892114;28;20048;-82
2023/01/02 07:35:01;;;;;;;11.93;7.07;;;;;;;17.89;46.96;101320.56;20905241;28;20056;-83
2023/01/02 07:45:01;;;;;;;11.00;7.10;;;;;;;17.90;46.85;101332.75;20911331;28;20135;-82
2023/01/02 07:55:02;;;;;;;10.02;6.95;;;;;;;17.90;46.87;101327.50;20914292;28;20672;-81
2023/01/02 08:05:03;;;;;;;10.48;6.93;;;;;;;17.92;46.97;101323.06;20905605;28;20041;-82
2023/01/02 08:15:04;;;;;;;9.30;6.93;;;;;;;17.92;46.92;101326.50;20914596;28;20067;-82
2023/01/02 08:25:05;;;;;;;9.15;6.30;;;;;;;17.92;46.92;101320.44;20916006;28;20047;-82
2023/01/02 08:35:06;;;;;;;10.35;6.70;;;;;;;17.92;46.93;101328.28;20915834;28;20103;-83
2023/01/02 08:45:07;;;;;;;10.73;6.90;;;;;;;17.94;47.17;101323.81;20896838;28;20059;-81
2023/01/02 08:55:08;;;;;;;10.23;6.80;;;;;;;17.95;46.82;101330.78;20913021;28;20084;-81
2023/01/02 09:05:09;;;;;;;9.13;6.55;;;;;;;17.97;46.78;101338.56;20898811;28;20040;-82
2023/01/02 09:15:10;;;;;;;8.48;6.20;;;;;;;17.97;46.89;101328.06;20913719;28;20033;-81
2023/01/02 09:25:10;;;;;;;9.48;6.53;;;;;;;17.98;46.71;101327.16;20906199;28;20037;-82
2023/01/02 09:35:11;;;;;;;7.88;5.68;;;;;;;17.98;46.98;101316.66;20906461;28;20102;-81
2023/01/02 09:45:13;;;;;;;8.15;5.85;;;;;;;17.99;46.97;101295.66;20905633;28;20550;-82
2023/01/02 09:55:30;;;;;;;7.88;5.53;;;;;;;17.99;46.86;101282.56;20910663;28;20044;-83
2023/01/02 10:05:53;;;;;;;8.27;6.25;;;;;;;18.01;46.82;101272.81;20912939;28;20064;-82
2023/01/02 10:15:56;;;;;;;8.80;6.00;;;;;;;18.01;46.75;101266.75;20911382;28;20056;-82
2023/01/02 10:26:19;;;;;;;8.40;5.30;;;;;;;18.03;46.93;101252.63;20888430;28;20165;-82
2023/01/02 10:36:22;;;;;;;7.60;5.55;;;;;;;18.04;46.88;101240.38;20886658;28;20403;-82
2023/01/02 10:46:26;;;;;;;7.30;5.00;;;;;;;18.04;46.88;101230.75;20903327;28;20508;-82
2023/01/02 10:56:30;;;;;;;7.18;5.35;;;;;;;18.06;46.87;101210.53;20886508;28;20503;-82
2023/01/02 11:06:31;;;;;;;8.80;5.97;;;;;;;18.08;46.92;101200.81;20909211;28;20122;-82
2023/01/02 11:16:37;;;;;;;8.43;5.55;;;;;;;18.10;46.86;101194.66;20922654;28;20089;-82
2023/01/02 11:26:39;;;;;;;9.10;5.90;;;;;;;18.12;46.86;101180.56;20923299;28;20361;-82
2023/01/02 11:36:43;;;;;;;8.60;6.00;;;;;;;18.17;46.65;101162.81;20924179;28;20180;-82
2023/01/02 11:46:43;;;;;;;8.70;5.50;;;;;;;18.22;46.75;101147.69;20921199;28;20440;-82
2023/01/02 11:56:44;;;;;;;7.47;5.65;;;;;;;18.32;46.74;101131.47;20920258;28;20037;-82
2023/01/02 12:06:57;;;;;;;6.43;5.00;;;;;;;18.44;46.57;101119.47;20917415;28;20120;-81
2023/01/02 12:17:11;;;;;;;7.53;5.13;;;;;;;18.55;46.43;101123.22;20917984;28;20301;-81
2023/01/02 12:27:33;;;;;;;6.95;5.03;;;;;;;18.64;46.21;101111.38;20914789;28;20041;-81
2023/01/02 12:37:47;;;;;;;7.65;5.32;;;;;;;18.71;46.23;101104.88;20913961;28;20063;-82
2023/01/02 12:48:04;;;;;;;7.95;5.60;;;;;;;18.75;46.22;101097.66;20922168;28;20133;-81
2023/01/02 12:58:39;;;;;;;7.13;5.15;;;;;;;18.78;45.99;101092.22;20915504;28;20109;-81
2023/01/02 13:09:02;;;;;;;6.43;4.80;;;;;;;18.80;46.05;101089.56;20904947;28;20124;-81
2023/01/02 13:19:22;;;;;;;7.17;5.37;;;;;;;18.81;46.02;101085.97;20880082;28;20040;-81
2023/01/02 13:29:38;;;;;;;6.47;4.82;;;;;;;18.80;46.03;101089.56;20898549;28;20052;-82
2023/01/02 13:39:39;;;;;;;7.20;5.50;;;;;;;18.77;46.12;101085.28;20899781;28;20040;-82
2023/01/02 13:49:40;;;;;;;6.53;5.38;;;;;;;18.77;45.89;101074.78;20911059;28;20051;-82
2023/01/02 14:00:01;;;;;;;6.10;4.90;;;;;;;18.75;46.12;101089.81;20900345;28;20586;-81
2023/01/02 14:10:33;;;;;;;6.65;5.10;;;;;;;18.73;46.09;101097.72;20905059;28;20049;-82
2023/01/02 14:20:36;;;;;;;6.70;5.07;;;;;;;18.69;46.12;101098.00;20918062;28;20055;-82
2023/01/02 14:30:39;;;;;;;7.47;5.27;;;;;;;18.65;46.34;101105.19;20908388;28;20033;-83
2023/01/02 14:40:41;;;;;;;6.97;5.37;;;;;;;18.64;46.37;101107.88;20914035;28;20508;-82
2023/01/02 14:50:44;;;;;;;8.85;6.03;;;;;;;18.60;46.54;101109.84;20913431;28;20274;-81
2023/01/02 15:00:47;;;;;;;9.50;5.93;;;;;;;18.58;46.50;101089.88;20910708;28;20123;-82
2023/01/02 15:13:02;;;;;;;8.15;5.20;;;;;;;18.56;46.45;101088.16;20912130;28;20439;-84
2023/01/02 15:21:25;;;;;;;6.73;5.23;;;;;;;18.52;46.50;101084.03;20911328;28;20060;-82
2023/01/02 15:31:26;;;;;;;6.22;5.22;;;;;;;18.50;46.83;101098.16;20910968;28;20033;-82
2023/01/02 15:41:26;;;;;;;8.02;5.68;;;;;;;18.48;46.50;101100.88;20910438;28;20051;-82
2023/01/02 15:51:27;;;;;;;8.60;5.60;;;;;;;18.47;46.65;101106.19;20911441;28;20072;-83
2023/01/02 16:01:28;;;;;;;9.68;5.97;;;;;;;18.46;46.65;101109.78;20906342;28;20044;-82
2023/01/02 16:11:29;;;;;;;8.00;5.43;;;;;;;18.45;46.72;101114.16;20904807;28;20041;-82
2023/01/02 16:21:31;;;;;;;9.10;5.82;;;;;;;18.42;46.65;101123.97;20927098;28;20045;-81
2023/01/02 16:31:56;;;;;;;7.70;5.40;;;;;;;18.40;46.73;101127.50;20917871;28;20147;-82
2023/01/02 16:52:19;;;;;;;6.63;5.30;;;;;;;18.37;46.91;101119.81;20914847;28;20037;-82
2023/01/02 17:02:19;;;;;;;6.63;5.35;;;;;;;18.37;46.80;101127.69;20913285;28;20048;-82
2023/01/02 17:12:20;;;;;;;8.10;5.75;;;;;;;18.37;46.82;101132.94;20916686;28;20029;-81
2023/01/02 17:22:21;;;;;;;8.60;6.05;;;;;;;18.36;46.91;101136.47;20912762;28;20067;-82
2023/01/02 17:32:21;;;;;;;8.30;5.95;;;;;;;18.34;46.92;101127.84;20910227;28;20033;-82
2023/01/02 17:42:22;;;;;;;7.85;5.72;;;;;;;18.33;46.94;101136.63;20917213;28;20948;-81
2023/01/02 17:52:23;;;;;;;9.10;6.20;;;;;;;18.34;46.91;101143.56;20912895;28;20041;-81
2023/01/02 18:02:23;;;;;;;8.82;6.07;;;;;;;18.33;46.84;101133.16;20910171;28;20044;-82
2023/01/02 18:12:26;;;;;;;7.25;5.60;;;;;;;18.33;46.98;101135.78;20896257;28;20476;-82
2023/01/02 18:22:29;;;;;;;7.97;5.47;;;;;;;18.32;46.86;101128.84;20899872;28;20181;-82
2023/01/02 18:32:39;;;;;;;9.18;6.05;;;;;;;18.32;46.88;101128.84;20896791;28;20068;-82
2023/01/02 18:42:41;;;;;;;8.20;5.70;;;;;;;18.31;46.82;101124.53;20912559;28;20069;-82
2023/01/02 18:52:43;;;;;;;9.27;6.25;;;;;;;18.30;46.94;101125.47;20891761;28;20042;-81
2023/01/02 19:02:55;;;;;;;9.00;6.10;;;;;;;18.29;47.08;101122.00;20911164;28;20128;-82
2023/01/02 19:13:02;;;;;;;8.43;5.88;;;;;;;18.28;47.01;101115.06;20897872;28;20048;-82
2023/01/02 19:23:26;;;;;;;8.73;6.18;;;;;;;18.28;46.81;101122.09;20911771;28;20076;-81
2023/01/02 19:33:35;;;;;;;9.27;5.95;;;;;;;18.29;46.99;101129.03;20903114;28;20037;-81
2023/01/02 19:43:36;;;;;;;10.10;6.80;;;;;;;18.26;47.00;101122.19;20917791;28;20092;-80
2023/01/02 19:53:36;;;;;;;8.70;6.32;;;;;;;18.26;46.97;101139.66;20906454;28;20037;-81
2023/01/02 20:03:37;;;;;;;10.02;6.53;;;;;;;18.24;47.04;101132.72;20911184;28;20049;-81
2023/01/02 20:13:39;;;;;;;9.30;6.35;;;;;;;18.24;47.06;101137.13;20926201;28;20037;-80
2023/01/02 20:23:40;;;;;;;9.68;6.70;;;;;;;18.26;47.08;101142.28;20906220;28;20071;-83
2023/01/02 20:33:40;;;;;;;9.25;6.20;;;;;;;18.24;47.13;101147.63;20910193;28;20496;-81
2023/01/02 20:43:41;;;;;;;9.63;6.47;;;;;;;18.25;47.06;101151.94;20901036;28;20036;-82
2023/01/02 20:53:42;;;;;;;10.20;6.57;;;;;;;18.23;47.32;101144.13;20881015;28;20048;-81
2023/01/02 21:03:43;;;;;;;9.90;6.30;;;;;;;18.23;47.21;101138.88;20896998;28;20041;-83
2023/01/02 21:13:44;;;;;;;10.05;6.50;;;;;;;18.23;47.10;101152.00;20898786;28;20499;-82
2023/01/02 21:23:47;;;;;;;9.60;6.65;;;;;;;18.23;47.20;101145.91;20911911;28;20078;-83
2023/01/02 21:33:47;;;;;;;10.13;6.88;;;;;;;18.23;47.10;101156.41;20913467;28;20061;-82
2023/01/02 21:43:48;;;;;;;9.20;5.90;;;;;;;18.23;47.16;101156.41;20912961;28;20064;-83
2023/01/02 21:53:49;;;;;;;10.60;6.70;;;;;;;18.23;47.20;101164.28;20910242;28;20160;-83
2023/01/02 22:03:49;;;;;;;10.40;6.95;;;;;;;18.22;47.18;101170.44;20910372;28;20076;-83
2023/01/02 22:13:50;;;;;;;10.35;7.00;;;;;;;18.22;47.16;101168.69;20911376;28;20053;-82
2023/01/02 22:23:50;;;;;;;10.30;6.72;;;;;;;18.22;47.23;101162.56;20886135;28;20045;-82
2023/01/02 22:33:54;;;;;;;10.13;6.57;;;;;;;18.21;47.21;101159.13;20895191;28;20036;-83
2023/01/02 22:43:54;;;;;;;;;;;;;;;18.21;47.18;101161.72;20908229;28;20053;-82
2023/01/02 22:53:55;;;;;;;11.32;7.15;;;;;;;18.20;47.22;101144.31;20904816;28;19931;-80
2023/01/02 23:03:55;;;;;;;10.77;6.88;;;;;;;18.21;47.43;101159.13;20912446;28;20055;-81
2023/01/02 23:13:56;;;;;;;12.57;7.20;;;;;;;18.21;47.08;101159.13;20921578;28;20041;-81
2023/01/02 23:23:56;;;;;;;9.98;6.60;;;;;;;18.21;47.32;101166.97;20926456;28;20056;-81
2023/01/02 23:33:57;;;;;;;11.60;7.18;;;;;;;18.20;47.31;101154.78;20919015;28;20442;-82
2023/01/02 23:43:57;;;;;;;11.73;7.20;;;;;;;18.21;47.40;101160.88;20903173;28;20095;-82
2023/01/02 23:53:58;;;;;;;12.90;7.82;;;;;;;18.20;47.29;101157.41;20919234;28;20033;-81
